sensor_id;sensor_type;location;lat;lon;timestamp;P1;durP1;ratioP1;P2;durP2;ratioP2
13012;SDS011;22580;57.670;12.006;2023-11-19T00:00:17;0.20;;;0.20;;
13012;SDS011;22580;57.670;12.006;2023-11-19T00:02:45;0.40;;;0.40;;
13012;SDS011;22580;57.670;12.006;2023-11-19T00:05:12;0.33;;;0.33;;
13012;SDS011;22580;57.670;12.006;2023-11-19T00:07:41;0.57;;;0.57;;
13012;SDS011;22580;57.670;12.006;2023-11-19T00:10:12;0.40;;;0.40;;
13012;SDS011;22580;57.670;12.006;2023-11-19T00:12:44;0.40;;;0.40;;
13012;SDS011;22580;57.670;12.006;2023-11-19T00:15:11;0.37;;;0.37;;
13012;SDS011;22580;57.670;12.006;2023-11-19T00:17:44;0.30;;;0.30;;
13012;SDS011;22580;57.670;12.006;2023-11-19T00:20:13;0.50;;;0.50;;
13012;SDS011;22580;57.670;12.006;2023-11-19T00:22:42;0.30;;;0.30;;
13012;SDS011;22580;57.670;12.006;2023-11-19T00:25:09;0.30;;;0.30;;
13012;SDS011;22580;57.670;12.006;2023-11-19T00:27:37;0.40;;;0.40;;
13012;SDS011;22580;57.670;12.006;2023-11-19T00:30:04;0.43;;;0.43;;
13012;SDS011;22580;57.670;12.006;2023-11-19T00:32:33;0.60;;;0.60;;
13012;SDS011;22580;57.670;12.006;2023-11-19T00:35:00;0.50;;;0.50;;
13012;SDS011;22580;57.670;12.006;2023-11-19T00:37:28;0.70;;;0.70;;
13012;SDS011;22580;57.670;12.006;2023-11-19T00:39:56;0.37;;;0.37;;
13012;SDS011;22580;57.670;12.006;2023-11-19T00:42:23;0.50;;;0.50;;
13012;SDS011;22580;57.670;12.006;2023-11-19T00:44:50;0.47;;;0.47;;
13012;SDS011;22580;57.670;12.006;2023-11-19T00:47:17;0.40;;;0.40;;
13012;SDS011;22580;57.670;12.006;2023-11-19T00:49:45;0.30;;;0.30;;
13012;SDS011;22580;57.670;12.006;2023-11-19T00:52:15;0.37;;;0.37;;
13012;SDS011;22580;57.670;12.006;2023-11-19T00:54:42;0.30;;;0.30;;
13012;SDS011;22580;57.670;12.006;2023-11-19T00:57:10;0.30;;;0.30;;
13012;SDS011;22580;57.670;12.006;2023-11-19T00:59:37;0.30;;;0.30;;
13012;SDS011;22580;57.670;12.006;2023-11-19T01:02:04;0.20;;;0.20;;
13012;SDS011;22580;57.670;12.006;2023-11-19T01:04:33;0.40;;;0.40;;
13012;SDS011;22580;57.670;12.006;2023-11-19T01:07:01;0.40;;;0.40;;
13012;SDS011;22580;57.670;12.006;2023-11-19T01:09:30;0.30;;;0.30;;
13012;SDS011;22580;57.670;12.006;2023-11-19T01:11:59;0.47;;;0.47;;
13012;SDS011;22580;57.670;12.006;2023-11-19T01:14:28;0.30;;;0.30;;
13012;SDS011;22580;57.670;12.006;2023-11-19T01:16:57;0.40;;;0.40;;
13012;SDS011;22580;57.670;12.006;2023-11-19T01:19:24;0.30;;;0.30;;
13012;SDS011;22580;57.670;12.006;2023-11-19T01:21:52;0.17;;;0.17;;
13012;SDS011;22580;57.670;12.006;2023-11-19T01:24:21;0.40;;;0.40;;
13012;SDS011;22580;57.670;12.006;2023-11-19T01:26:48;0.60;;;0.60;;
13012;SDS011;22580;57.670;12.006;2023-11-19T01:29:15;0.33;;;0.33;;
13012;SDS011;22580;57.670;12.006;2023-11-19T01:31:45;0.47;;;0.47;;
13012;SDS011;22580;57.670;12.006;2023-11-19T01:34:12;0.30;;;0.30;;
13012;SDS011;22580;57.670;12.006;2023-11-19T01:36:40;0.30;;;0.30;;
13012;SDS011;22580;57.670;12.006;2023-11-19T01:39:08;0.40;;;0.40;;
13012;SDS011;22580;57.670;12.006;2023-11-19T01:41:35;0.40;;;0.40;;
13012;SDS011;22580;57.670;12.006;2023-11-19T01:44:03;0.70;;;0.70;;
13012;SDS011;22580;57.670;12.006;2023-11-19T01:46:30;0.53;;;0.47;;
13012;SDS011;22580;57.670;12.006;2023-11-19T01:49:00;0.50;;;0.50;;
13012;SDS011;22580;57.670;12.006;2023-11-19T01:51:27;0.37;;;0.37;;
13012;SDS011;22580;57.670;12.006;2023-11-19T01:53:55;0.30;;;0.30;;
13012;SDS011;22580;57.670;12.006;2023-11-19T01:56:23;0.50;;;0.50;;
13012;SDS011;22580;57.670;12.006;2023-11-19T01:58:52;0.60;;;0.60;;
13012;SDS011;22580;57.670;12.006;2023-11-19T02:01:21;0.40;;;0.40;;
13012;SDS011;22580;57.670;12.006;2023-11-19T02:03:48;0.30;;;0.30;;
13012;SDS011;22580;57.670;12.006;2023-11-19T02:06:16;0.50;;;0.50;;
13012;SDS011;22580;57.670;12.006;2023-11-19T02:08:43;0.37;;;0.37;;
13012;SDS011;22580;57.670;12.006;2023-11-19T02:11:11;0.30;;;0.30;;
13012;SDS011;22580;57.670;12.006;2023-11-19T02:13:38;0.50;;;0.50;;
13012;SDS011;22580;57.670;12.006;2023-11-19T02:16:07;0.50;;;0.50;;
13012;SDS011;22580;57.670;12.006;2023-11-19T02:18:36;0.50;;;0.50;;
13012;SDS011;22580;57.670;12.006;2023-11-19T02:21:03;0.40;;;0.40;;
13012;SDS011;22580;57.670;12.006;2023-11-19T02:23:33;0.73;;;0.40;;
13012;SDS011;22580;57.670;12.006;2023-11-19T02:26:02;0.50;;;0.50;;
13012;SDS011;22580;57.670;12.006;2023-11-19T02:28:35;0.30;;;0.30;;
13012;SDS011;22580;57.670;12.006;2023-11-19T02:31:03;0.40;;;0.40;;
13012;SDS011;22580;57.670;12.006;2023-11-19T02:33:34;0.40;;;0.40;;
13012;SDS011;22580;57.670;12.006;2023-11-19T02:36:02;0.30;;;0.30;;
13012;SDS011;22580;57.670;12.006;2023-11-19T02:38:30;0.40;;;0.40;;
13012;SDS011;22580;57.670;12.006;2023-11-19T02:40:57;0.43;;;0.43;;
13012;SDS011;22580;57.670;12.006;2023-11-19T02:43:24;0.50;;;0.50;;
13012;SDS011;22580;57.670;12.006;2023-11-19T02:45:52;0.40;;;0.40;;
13012;SDS011;22580;57.670;12.006;2023-11-19T02:48:20;0.40;;;0.40;;
13012;SDS011;22580;57.670;12.006;2023-11-19T02:50:47;0.43;;;0.40;;
13012;SDS011;22580;57.670;12.006;2023-11-19T02:53:14;0.40;;;0.40;;
13012;SDS011;22580;57.670;12.006;2023-11-19T02:55:42;0.47;;;0.47;;
13012;SDS011;22580;57.670;12.006;2023-11-19T02:58:13;0.47;;;0.30;;
13012;SDS011;22580;57.670;12.006;2023-11-19T03:00:48;0.40;;;0.40;;
13012;SDS011;22580;57.670;12.006;2023-11-19T03:03:23;0.30;;;0.30;;
13012;SDS011;22580;57.670;12.006;2023-11-19T03:05:54;0.23;;;0.23;;
13012;SDS011;22580;57.670;12.006;2023-11-19T03:08:20;0.30;;;0.30;;
13012;SDS011;22580;57.670;12.006;2023-11-19T03:10:48;0.50;;;0.50;;
13012;SDS011;22580;57.670;12.006;2023-11-19T03:13:15;0.50;;;0.50;;
13012;SDS011;22580;57.670;12.006;2023-11-19T03:15:43;0.33;;;0.33;;
13012;SDS011;22580;57.670;12.006;2023-11-19T03:18:10;0.40;;;0.40;;
13012;SDS011;22580;57.670;12.006;2023-11-19T03:20:38;0.60;;;0.60;;
13012;SDS011;22580;57.670;12.006;2023-11-19T03:23:05;0.50;;;0.50;;
13012;SDS011;22580;57.670;12.006;2023-11-19T03:25:33;0.83;;;0.47;;
13012;SDS011;22580;57.670;12.006;2023-11-19T03:28:01;0.40;;;0.40;;
13012;SDS011;22580;57.670;12.006;2023-11-19T03:30:28;0.50;;;0.50;;
13012;SDS011;22580;57.670;12.006;2023-11-19T03:32:56;0.60;;;0.60;;
13012;SDS011;22580;57.670;12.006;2023-11-19T03:35:24;0.50;;;0.50;;
13012;SDS011;22580;57.670;12.006;2023-11-19T03:37:54;0.57;;;0.57;;
13012;SDS011;22580;57.670;12.006;2023-11-19T03:40:21;0.40;;;0.40;;
13012;SDS011;22580;57.670;12.006;2023-11-19T03:42:50;0.40;;;0.40;;
13012;SDS011;22580;57.670;12.006;2023-11-19T03:45:17;0.30;;;0.30;;
13012;SDS011;22580;57.670;12.006;2023-11-19T03:47:44;0.50;;;0.50;;
13012;SDS011;22580;57.670;12.006;2023-11-19T03:50:11;0.50;;;0.50;;
13012;SDS011;22580;57.670;12.006;2023-11-19T03:52:38;0.63;;;0.63;;
13012;SDS011;22580;57.670;12.006;2023-11-19T03:55:07;0.50;;;0.50;;
13012;SDS011;22580;57.670;12.006;2023-11-19T03:57:35;0.33;;;0.33;;
13012;SDS011;22580;57.670;12.006;2023-11-19T04:00:02;0.50;;;0.50;;
13012;SDS011;22580;57.670;12.006;2023-11-19T04:02:33;0.40;;;0.40;;
13012;SDS011;22580;57.670;12.006;2023-11-19T04:05:00;0.40;;;0.40;;
13012;SDS011;22580;57.670;12.006;2023-11-19T04:07:28;0.60;;;0.60;;
13012;SDS011;22580;57.670;12.006;2023-11-19T04:09:55;0.50;;;0.50;;
13012;SDS011;22580;57.670;12.006;2023-11-19T04:12:24;0.50;;;0.50;;
13012;SDS011;22580;57.670;12.006;2023-11-19T04:14:51;0.63;;;0.63;;
13012;SDS011;22580;57.670;12.006;2023-11-19T04:17:18;0.40;;;0.30;;
13012;SDS011;22580;57.670;12.006;2023-11-19T04:19:45;0.50;;;0.50;;
13012;SDS011;22580;57.670;12.006;2023-11-19T04:22:11;0.67;;;0.47;;
13012;SDS011;22580;57.670;12.006;2023-11-19T04:24:39;1.13;;;0.50;;
13012;SDS011;22580;57.670;12.006;2023-11-19T04:27:06;0.53;;;0.50;;
13012;SDS011;22580;57.670;12.006;2023-11-19T04:29:35;0.40;;;0.40;;
13012;SDS011;22580;57.670;12.006;2023-11-19T04:32:02;0.50;;;0.50;;
13012;SDS011;22580;57.670;12.006;2023-11-19T04:34:30;0.60;;;0.60;;
13012;SDS011;22580;57.670;12.006;2023-11-19T04:36:57;0.60;;;0.60;;
13012;SDS011;22580;57.670;12.006;2023-11-19T04:39:28;0.37;;;0.37;;
13012;SDS011;22580;57.670;12.006;2023-11-19T04:41:55;0.40;;;0.40;;
13012;SDS011;22580;57.670;12.006;2023-11-19T04:44:22;0.40;;;0.40;;
13012;SDS011;22580;57.670;12.006;2023-11-19T04:46:51;0.40;;;0.40;;
13012;SDS011;22580;57.670;12.006;2023-11-19T04:49:17;0.60;;;0.40;;
13012;SDS011;22580;57.670;12.006;2023-11-19T04:51:45;0.30;;;0.30;;
13012;SDS011;22580;57.670;12.006;2023-11-19T04:54:13;0.40;;;0.40;;
13012;SDS011;22580;57.670;12.006;2023-11-19T04:56:40;0.30;;;0.30;;
13012;SDS011;22580;57.670;12.006;2023-11-19T04:59:12;0.30;;;0.30;;
13012;SDS011;22580;57.670;12.006;2023-11-19T05:01:40;0.30;;;0.30;;
13012;SDS011;22580;57.670;12.006;2023-11-19T05:04:08;0.40;;;0.40;;
13012;SDS011;22580;57.670;12.006;2023-11-19T05:06:37;0.73;;;0.40;;
13012;SDS011;22580;57.670;12.006;2023-11-19T05:09:04;0.30;;;0.30;;
13012;SDS011;22580;57.670;12.006;2023-11-19T05:11:32;0.40;;;0.40;;
13012;SDS011;22580;57.670;12.006;2023-11-19T05:14:02;0.30;;;0.30;;
13012;SDS011;22580;57.670;12.006;2023-11-19T05:16:30;0.30;;;0.30;;
13012;SDS011;22580;57.670;12.006;2023-11-19T05:18:57;0.20;;;0.20;;
13012;SDS011;22580;57.670;12.006;2023-11-19T05:21:26;0.50;;;0.50;;
13012;SDS011;22580;57.670;12.006;2023-11-19T05:23:53;0.40;;;0.40;;
13012;SDS011;22580;57.670;12.006;2023-11-19T05:26:20;0.30;;;0.30;;
13012;SDS011;22580;57.670;12.006;2023-11-19T05:28:47;0.40;;;0.40;;
13012;SDS011;22580;57.670;12.006;2023-11-19T05:31:15;0.40;;;0.40;;
13012;SDS011;22580;57.670;12.006;2023-11-19T05:33:43;0.80;;;0.80;;
13012;SDS011;22580;57.670;12.006;2023-11-19T05:36:10;0.50;;;0.50;;
13012;SDS011;22580;57.670;12.006;2023-11-19T05:38:39;0.53;;;0.53;;
13012;SDS011;22580;57.670;12.006;2023-11-19T05:41:07;0.40;;;0.40;;
13012;SDS011;22580;57.670;12.006;2023-11-19T05:43:34;0.60;;;0.60;;
13012;SDS011;22580;57.670;12.006;2023-11-19T05:46:01;0.40;;;0.40;;
13012;SDS011;22580;57.670;12.006;2023-11-19T05:48:28;0.40;;;0.40;;
13012;SDS011;22580;57.670;12.006;2023-11-19T05:50:55;0.40;;;0.40;;
13012;SDS011;22580;57.670;12.006;2023-11-19T05:53:22;0.50;;;0.50;;
13012;SDS011;22580;57.670;12.006;2023-11-19T05:55:51;0.47;;;0.47;;
13012;SDS011;22580;57.670;12.006;2023-11-19T05:58:22;0.40;;;0.33;;
13012;SDS011;22580;57.670;12.006;2023-11-19T06:00:53;0.40;;;0.40;;
13012;SDS011;22580;57.670;12.006;2023-11-19T06:03:20;0.30;;;0.30;;
13012;SDS011;22580;57.670;12.006;2023-11-19T06:05:47;0.47;;;0.47;;
13012;SDS011;22580;57.670;12.006;2023-11-19T06:08:15;0.30;;;0.30;;
13012;SDS011;22580;57.670;12.006;2023-11-19T06:10:42;0.60;;;0.40;;
13012;SDS011;22580;57.670;12.006;2023-11-19T06:13:12;0.50;;;0.50;;
13012;SDS011;22580;57.670;12.006;2023-11-19T06:15:40;0.60;;;0.60;;
13012;SDS011;22580;57.670;12.006;2023-11-19T06:18:07;0.53;;;0.53;;
13012;SDS011;22580;57.670;12.006;2023-11-19T06:20:35;0.47;;;0.40;;
13012;SDS011;22580;57.670;12.006;2023-11-19T06:23:02;0.30;;;0.30;;
13012;SDS011;22580;57.670;12.006;2023-11-19T06:25:29;0.30;;;0.30;;
13012;SDS011;22580;57.670;12.006;2023-11-19T06:27:56;0.40;;;0.40;;
13012;SDS011;22580;57.670;12.006;2023-11-19T06:30:24;0.30;;;0.30;;
13012;SDS011;22580;57.670;12.006;2023-11-19T06:32:53;0.40;;;0.40;;
13012;SDS011;22580;57.670;12.006;2023-11-19T06:35:20;0.50;;;0.50;;
13012;SDS011;22580;57.670;12.006;2023-11-19T06:37:47;0.50;;;0.50;;
13012;SDS011;22580;57.670;12.006;2023-11-19T06:40:14;0.30;;;0.30;;
13012;SDS011;22580;57.670;12.006;2023-11-19T06:42:41;0.40;;;0.40;;
13012;SDS011;22580;57.670;12.006;2023-11-19T06:45:09;0.40;;;0.40;;
13012;SDS011;22580;57.670;12.006;2023-11-19T06:47:40;0.30;;;0.30;;
13012;SDS011;22580;57.670;12.006;2023-11-19T06:50:07;0.40;;;0.40;;
13012;SDS011;22580;57.670;12.006;2023-11-19T06:52:34;0.40;;;0.40;;
13012;SDS011;22580;57.670;12.006;2023-11-19T06:55:03;0.30;;;0.30;;
13012;SDS011;22580;57.670;12.006;2023-11-19T06:57:31;0.50;;;0.50;;
13012;SDS011;22580;57.670;12.006;2023-11-19T06:59:58;0.50;;;0.50;;
13012;SDS011;22580;57.670;12.006;2023-11-19T07:02:26;0.57;;;0.57;;
13012;SDS011;22580;57.670;12.006;2023-11-19T07:04:54;0.70;;;0.50;;
13012;SDS011;22580;57.670;12.006;2023-11-19T07:07:21;0.60;;;0.60;;
13012;SDS011;22580;57.670;12.006;2023-11-19T07:09:48;0.60;;;0.60;;
13012;SDS011;22580;57.670;12.006;2023-11-19T07:12:15;0.60;;;0.60;;
13012;SDS011;22580;57.670;12.006;2023-11-19T07:14:42;0.40;;;0.40;;
13012;SDS011;22580;57.670;12.006;2023-11-19T07:17:10;0.50;;;0.50;;
13012;SDS011;22580;57.670;12.006;2023-11-19T07:19:37;0.40;;;0.40;;
13012;SDS011;22580;57.670;12.006;2023-11-19T07:22:05;0.40;;;0.40;;
13012;SDS011;22580;57.670;12.006;2023-11-19T07:24:33;0.50;;;0.50;;
13012;SDS011;22580;57.670;12.006;2023-11-19T07:27:00;0.40;;;0.40;;
13012;SDS011;22580;57.670;12.006;2023-11-19T07:29:29;0.43;;;0.43;;
13012;SDS011;22580;57.670;12.006;2023-11-19T07:31:56;0.50;;;0.50;;
13012;SDS011;22580;57.670;12.006;2023-11-19T07:34:24;0.50;;;0.50;;
13012;SDS011;22580;57.670;12.006;2023-11-19T07:36:51;0.50;;;0.50;;
13012;SDS011;22580;57.670;12.006;2023-11-19T07:39:19;0.60;;;0.60;;
13012;SDS011;22580;57.670;12.006;2023-11-19T07:41:47;0.50;;;0.50;;
13012;SDS011;22580;57.670;12.006;2023-11-19T07:44:14;0.50;;;0.50;;
13012;SDS011;22580;57.670;12.006;2023-11-19T07:46:41;0.57;;;0.57;;
13012;SDS011;22580;57.670;12.006;2023-11-19T07:49:10;0.43;;;0.43;;
13012;SDS011;22580;57.670;12.006;2023-11-19T07:51:37;0.40;;;0.40;;
13012;SDS011;22580;57.670;12.006;2023-11-19T07:54:04;0.50;;;0.50;;
13012;SDS011;22580;57.670;12.006;2023-11-19T07:56:33;1.03;;;0.60;;
13012;SDS011;22580;57.670;12.006;2023-11-19T07:59:00;0.70;;;0.70;;
13012;SDS011;22580;57.670;12.006;2023-11-19T08:01:27;0.70;;;0.70;;
13012;SDS011;22580;57.670;12.006;2023-11-19T08:03:55;0.30;;;0.30;;
13012;SDS011;22580;57.670;12.006;2023-11-19T08:06:22;0.70;;;0.70;;
13012;SDS011;22580;57.670;12.006;2023-11-19T08:08:49;0.60;;;0.60;;
13012;SDS011;22580;57.670;12.006;2023-11-19T08:11:17;0.70;;;0.70;;
13012;SDS011;22580;57.670;12.006;2023-11-19T08:13:46;0.60;;;0.60;;
13012;SDS011;22580;57.670;12.006;2023-11-19T08:16:13;0.40;;;0.40;;
13012;SDS011;22580;57.670;12.006;2023-11-19T08:18:41;0.70;;;0.70;;
13012;SDS011;22580;57.670;12.006;2023-11-19T08:21:08;0.60;;;0.60;;
13012;SDS011;22580;57.670;12.006;2023-11-19T08:23:35;0.47;;;0.47;;
13012;SDS011;22580;57.670;12.006;2023-11-19T08:26:03;0.40;;;0.40;;
13012;SDS011;22580;57.670;12.006;2023-11-19T08:28:31;0.40;;;0.40;;
13012;SDS011;22580;57.670;12.006;2023-11-19T08:31:01;0.43;;;0.43;;
13012;SDS011;22580;57.670;12.006;2023-11-19T08:33:29;0.40;;;0.40;;
13012;SDS011;22580;57.670;12.006;2023-11-19T08:35:56;0.53;;;0.53;;
13012;SDS011;22580;57.670;12.006;2023-11-19T08:38:23;0.40;;;0.40;;
13012;SDS011;22580;57.670;12.006;2023-11-19T08:40:51;0.30;;;0.30;;
13012;SDS011;22580;57.670;12.006;2023-11-19T08:43:18;0.40;;;0.40;;
13012;SDS011;22580;57.670;12.006;2023-11-19T08:45:45;0.37;;;0.37;;
13012;SDS011;22580;57.670;12.006;2023-11-19T08:48:14;0.63;;;0.63;;
13012;SDS011;22580;57.670;12.006;2023-11-19T08:50:41;0.60;;;0.60;;
13012;SDS011;22580;57.670;12.006;2023-11-19T08:53:08;0.40;;;0.40;;
13012;SDS011;22580;57.670;12.006;2023-11-19T08:55:36;0.70;;;0.70;;
13012;SDS011;22580;57.670;12.006;2023-11-19T08:58:04;1.23;;;0.80;;
13012;SDS011;22580;57.670;12.006;2023-11-19T09:00:32;0.80;;;0.80;;
13012;SDS011;22580;57.670;12.006;2023-11-19T09:02:58;0.53;;;0.53;;
13012;SDS011;22580;57.670;12.006;2023-11-19T09:05:27;0.83;;;0.83;;
13012;SDS011;22580;57.670;12.006;2023-11-19T09:07:55;0.73;;;0.60;;
13012;SDS011;22580;57.670;12.006;2023-11-19T09:10:21;0.60;;;0.60;;
13012;SDS011;22580;57.670;12.006;2023-11-19T09:12:49;0.60;;;0.60;;
13012;SDS011;22580;57.670;12.006;2023-11-19T09:15:15;0.80;;;0.80;;
13012;SDS011;22580;57.670;12.006;2023-11-19T09:17:42;0.60;;;0.60;;
13012;SDS011;22580;57.670;12.006;2023-11-19T09:20:10;0.50;;;0.50;;
13012;SDS011;22580;57.670;12.006;2023-11-19T09:22:43;0.70;;;0.70;;
13012;SDS011;22580;57.670;12.006;2023-11-19T09:25:12;0.43;;;0.43;;
13012;SDS011;22580;57.670;12.006;2023-11-19T09:27:42;0.50;;;0.50;;
13012;SDS011;22580;57.670;12.006;2023-11-19T09:30:09;0.60;;;0.60;;
13012;SDS011;22580;57.670;12.006;2023-11-19T09:32:37;0.67;;;0.67;;
13012;SDS011;22580;57.670;12.006;2023-11-19T09:35:04;0.60;;;0.60;;
13012;SDS011;22580;57.670;12.006;2023-11-19T09:37:32;0.90;;;0.73;;
13012;SDS011;22580;57.670;12.006;2023-11-19T09:40:00;0.87;;;0.63;;
13012;SDS011;22580;57.670;12.006;2023-11-19T09:42:28;0.70;;;0.70;;
13012;SDS011;22580;57.670;12.006;2023-11-19T09:44:55;0.47;;;0.47;;
13012;SDS011;22580;57.670;12.006;2023-11-19T09:47:24;0.63;;;0.63;;
13012;SDS011;22580;57.670;12.006;2023-11-19T09:49:55;0.60;;;0.60;;
13012;SDS011;22580;57.670;12.006;2023-11-19T09:52:22;0.70;;;0.70;;
13012;SDS011;22580;57.670;12.006;2023-11-19T09:54:50;0.60;;;0.60;;
13012;SDS011;22580;57.670;12.006;2023-11-19T09:57:18;0.50;;;0.50;;
13012;SDS011;22580;57.670;12.006;2023-11-19T09:59:45;0.60;;;0.60;;
13012;SDS011;22580;57.670;12.006;2023-11-19T10:02:14;0.70;;;0.70;;
13012;SDS011;22580;57.670;12.006;2023-11-19T10:04:45;1.00;;;1.00;;
13012;SDS011;22580;57.670;12.006;2023-11-19T10:07:16;0.53;;;0.53;;
13012;SDS011;22580;57.670;12.006;2023-11-19T10:09:43;0.60;;;0.60;;
13012;SDS011;22580;57.670;12.006;2023-11-19T10:12:12;0.60;;;0.60;;
13012;SDS011;22580;57.670;12.006;2023-11-19T10:14:40;0.60;;;0.60;;
13012;SDS011;22580;57.670;12.006;2023-11-19T10:17:09;0.60;;;0.60;;
13012;SDS011;22580;57.670;12.006;2023-11-19T10:19:36;0.40;;;0.40;;
13012;SDS011;22580;57.670;12.006;2023-11-19T10:22:04;0.80;;;0.80;;
13012;SDS011;22580;57.670;12.006;2023-11-19T10:24:31;0.70;;;0.70;;
13012;SDS011;22580;57.670;12.006;2023-11-19T10:26:59;0.80;;;0.80;;
13012;SDS011;22580;57.670;12.006;2023-11-19T10:29:29;0.70;;;0.70;;
13012;SDS011;22580;57.670;12.006;2023-11-19T10:31:57;0.60;;;0.60;;
13012;SDS011;22580;57.670;12.006;2023-11-19T10:34:25;0.60;;;0.60;;
13012;SDS011;22580;57.670;12.006;2023-11-19T10:36:53;0.90;;;0.90;;
13012;SDS011;22580;57.670;12.006;2023-11-19T10:39:20;0.70;;;0.70;;
13012;SDS011;22580;57.670;12.006;2023-11-19T10:41:48;0.80;;;0.80;;
13012;SDS011;22580;57.670;12.006;2023-11-19T10:44:30;0.73;;;0.73;;
13012;SDS011;22580;57.670;12.006;2023-11-19T10:47:00;0.53;;;0.53;;
13012;SDS011;22580;57.670;12.006;2023-11-19T10:49:27;0.97;;;0.97;;
13012;SDS011;22580;57.670;12.006;2023-11-19T10:51:54;1.00;;;0.87;;
13012;SDS011;22580;57.670;12.006;2023-11-19T10:54:24;0.60;;;0.60;;
13012;SDS011;22580;57.670;12.006;2023-11-19T10:56:54;0.50;;;0.50;;
13012;SDS011;22580;57.670;12.006;2023-11-19T10:59:25;0.80;;;0.67;;
13012;SDS011;22580;57.670;12.006;2023-11-19T11:01:56;0.50;;;0.50;;
13012;SDS011;22580;57.670;12.006;2023-11-19T11:04:26;0.73;;;0.73;;
13012;SDS011;22580;57.670;12.006;2023-11-19T11:06:56;0.70;;;0.70;;
13012;SDS011;22580;57.670;12.006;2023-11-19T11:09:27;0.83;;;0.83;;
13012;SDS011;22580;57.670;12.006;2023-11-19T11:11:54;0.90;;;0.90;;
13012;SDS011;22580;57.670;12.006;2023-11-19T11:14:22;0.70;;;0.70;;
13012;SDS011;22580;57.670;12.006;2023-11-19T11:16:52;0.83;;;0.83;;
13012;SDS011;22580;57.670;12.006;2023-11-19T11:19:20;0.80;;;0.80;;
13012;SDS011;22580;57.670;12.006;2023-11-19T11:21:50;0.77;;;0.77;;
13012;SDS011;22580;57.670;12.006;2023-11-19T11:27:41;0.70;;;0.70;;
13012;SDS011;22580;57.670;12.006;2023-11-19T11:30:20;0.63;;;0.63;;
13012;SDS011;22580;57.670;12.006;2023-11-19T11:32:58;0.50;;;0.50;;
13012;SDS011;22580;57.670;12.006;2023-11-19T11:35:35;0.50;;;0.50;;
13012;SDS011;22580;57.670;12.006;2023-11-19T11:38:14;0.77;;;0.77;;
13012;SDS011;22580;57.670;12.006;2023-11-19T11:40:43;0.83;;;0.83;;
13012;SDS011;22580;57.670;12.006;2023-11-19T11:46:11;0.53;;;0.53;;
13012;SDS011;22580;57.670;12.006;2023-11-19T11:49:16;0.77;;;0.77;;
13012;SDS011;22580;57.670;12.006;2023-11-19T11:51:58;0.90;;;0.90;;
13012;SDS011;22580;57.670;12.006;2023-11-19T11:54:40;0.70;;;0.67;;
13012;SDS011;22580;57.670;12.006;2023-11-19T11:57:08;1.23;;;1.00;;
13012;SDS011;22580;57.670;12.006;2023-11-19T11:59:42;0.90;;;0.90;;
13012;SDS011;22580;57.670;12.006;2023-11-19T12:02:15;0.77;;;0.77;;
13012;SDS011;22580;57.670;12.006;2023-11-19T12:04:49;1.20;;;1.10;;
13012;SDS011;22580;57.670;12.006;2023-11-19T12:07:20;0.93;;;0.93;;
13012;SDS011;22580;57.670;12.006;2023-11-19T12:09:51;1.10;;;1.00;;
13012;SDS011;22580;57.670;12.006;2023-11-19T12:12:25;0.93;;;0.93;;
13012;SDS011;22580;57.670;12.006;2023-11-19T12:15:00;0.70;;;0.70;;
13012;SDS011;22580;57.670;12.006;2023-11-19T12:17:36;1.03;;;0.93;;
13012;SDS011;22580;57.670;12.006;2023-11-19T12:20:21;0.80;;;0.80;;
13012;SDS011;22580;57.670;12.006;2023-11-19T12:22:49;0.80;;;0.80;;
13012;SDS011;22580;57.670;12.006;2023-11-19T12:25:19;0.70;;;0.70;;
13012;SDS011;22580;57.670;12.006;2023-11-19T12:27:47;0.90;;;0.90;;
13012;SDS011;22580;57.670;12.006;2023-11-19T12:30:21;0.77;;;0.77;;
13012;SDS011;22580;57.670;12.006;2023-11-19T12:32:49;0.80;;;0.80;;
13012;SDS011;22580;57.670;12.006;2023-11-19T12:35:22;0.70;;;0.70;;
13012;SDS011;22580;57.670;12.006;2023-11-19T12:37:50;0.80;;;0.80;;
13012;SDS011;22580;57.670;12.006;2023-11-19T12:40:20;0.80;;;0.80;;
13012;SDS011;22580;57.670;12.006;2023-11-19T12:42:48;1.00;;;1.00;;
13012;SDS011;22580;57.670;12.006;2023-11-19T12:45:18;1.03;;;1.00;;
13012;SDS011;22580;57.670;12.006;2023-11-19T12:47:46;0.97;;;0.97;;
13012;SDS011;22580;57.670;12.006;2023-11-19T12:50:16;1.20;;;1.20;;
13012;SDS011;22580;57.670;12.006;2023-11-19T12:52:55;0.90;;;0.90;;
13012;SDS011;22580;57.670;12.006;2023-11-19T12:55:25;0.90;;;0.90;;
13012;SDS011;22580;57.670;12.006;2023-11-19T12:57:53;1.30;;;1.20;;
13012;SDS011;22580;57.670;12.006;2023-11-19T13:00:20;1.20;;;1.10;;
13012;SDS011;22580;57.670;12.006;2023-11-19T13:02:49;0.80;;;0.80;;
13012;SDS011;22580;57.670;12.006;2023-11-19T13:05:22;0.83;;;0.83;;
13012;SDS011;22580;57.670;12.006;2023-11-19T13:07:51;1.00;;;1.00;;
13012;SDS011;22580;57.670;12.006;2023-11-19T13:10:26;0.90;;;0.90;;
13012;SDS011;22580;57.670;12.006;2023-11-19T13:13:04;1.20;;;1.10;;
13012;SDS011;22580;57.670;12.006;2023-11-19T13:15:31;0.80;;;0.80;;
13012;SDS011;22580;57.670;12.006;2023-11-19T13:17:58;1.03;;;1.03;;
13012;SDS011;22580;57.670;12.006;2023-11-19T13:20:28;1.20;;;1.10;;
13012;SDS011;22580;57.670;12.006;2023-11-19T13:22:57;0.90;;;0.90;;
13012;SDS011;22580;57.670;12.006;2023-11-19T13:25:27;0.90;;;0.90;;
13012;SDS011;22580;57.670;12.006;2023-11-19T13:27:54;1.20;;;1.10;;
13012;SDS011;22580;57.670;12.006;2023-11-19T13:30:24;0.93;;;0.93;;
13012;SDS011;22580;57.670;12.006;2023-11-19T13:32:52;0.70;;;0.70;;
13012;SDS011;22580;57.670;12.006;2023-11-19T13:35:20;0.63;;;0.63;;
13012;SDS011;22580;57.670;12.006;2023-11-19T13:37:47;0.80;;;0.80;;
13012;SDS011;22580;57.670;12.006;2023-11-19T13:40:14;0.63;;;0.63;;
13012;SDS011;22580;57.670;12.006;2023-11-19T13:42:42;0.80;;;0.80;;
13012;SDS011;22580;57.670;12.006;2023-11-19T13:45:10;1.20;;;1.10;;
13012;SDS011;22580;57.670;12.006;2023-11-19T13:47:38;0.93;;;0.93;;
13012;SDS011;22580;57.670;12.006;2023-11-19T13:50:07;0.80;;;0.80;;
13012;SDS011;22580;57.670;12.006;2023-11-19T13:52:35;0.80;;;0.80;;
13012;SDS011;22580;57.670;12.006;2023-11-19T13:55:04;0.80;;;0.80;;
13012;SDS011;22580;57.670;12.006;2023-11-19T13:57:33;0.70;;;0.70;;
13012;SDS011;22580;57.670;12.006;2023-11-19T14:00:02;0.93;;;0.90;;
13012;SDS011;22580;57.670;12.006;2023-11-19T14:02:32;0.90;;;0.90;;
13012;SDS011;22580;57.670;12.006;2023-11-19T14:04:59;0.80;;;0.80;;
13012;SDS011;22580;57.670;12.006;2023-11-19T14:07:26;0.80;;;0.80;;
13012;SDS011;22580;57.670;12.006;2023-11-19T14:09:54;0.93;;;0.93;;
13012;SDS011;22580;57.670;12.006;2023-11-19T14:12:22;0.87;;;0.77;;
13012;SDS011;22580;57.670;12.006;2023-11-19T14:14:49;0.70;;;0.70;;
13012;SDS011;22580;57.670;12.006;2023-11-19T14:17:17;0.70;;;0.70;;
13012;SDS011;22580;57.670;12.006;2023-11-19T14:19:44;0.90;;;0.90;;
13012;SDS011;22580;57.670;12.006;2023-11-19T14:22:11;0.87;;;0.80;;
13012;SDS011;22580;57.670;12.006;2023-11-19T14:24:38;0.70;;;0.70;;
13012;SDS011;22580;57.670;12.006;2023-11-19T14:27:07;0.80;;;0.80;;
13012;SDS011;22580;57.670;12.006;2023-11-19T14:29:34;0.70;;;0.70;;
13012;SDS011;22580;57.670;12.006;2023-11-19T14:32:02;0.73;;;0.73;;
13012;SDS011;22580;57.670;12.006;2023-11-19T14:34:31;1.17;;;1.07;;
13012;SDS011;22580;57.670;12.006;2023-11-19T14:36:58;0.90;;;0.90;;
13012;SDS011;22580;57.670;12.006;2023-11-19T14:39:27;0.67;;;0.67;;
13012;SDS011;22580;57.670;12.006;2023-11-19T14:41:56;0.80;;;0.77;;
13012;SDS011;22580;57.670;12.006;2023-11-19T14:44:26;0.70;;;0.70;;
13012;SDS011;22580;57.670;12.006;2023-11-19T14:46:54;0.80;;;0.80;;